Terminal Aerodrome Forecast
Issued by NWS Sioux Falls, SD

Home | Current Version | Previous Version | Text Only | Print | Product List | Glossary On
Versions: 1 2 3 4 5 6 7 8 9 10 11 12 13 14 15 16 17 18 19 20 21 22 23 24 25 26 27 28 29 30 31 32 33 34 35 36 37 38 39 40 41 42 43 44 45 46 47 48 49
000
FTUS43 KFSD 260959 AAB
TAFSUX
TAF AMD
KSUX 260959Z 2610/2706 VRB05KT 4SM -SHRA BR SCT007 BKN017
      TEMPO 2610/2613 2SM BR BKN007
     FM261400 36005KT 6SM BR SCT007 BKN070
     FM261600 36007KT P6SM SCT025 OVC050
     FM262300 35007KT P6SM BKN050 BKN100=

USA.gov is the U.S. government's official web portal to all federal, state and local government web resources and services.